Time;durP1;ratioP1;P1;durP2;ratioP2;P2;SDS_P1;SDS_P2;PMS_P1;PMS_P2;Temp;Humidity;BMP_temperature;BMP_pressure;BME280_temperature;BME280_humidity;BME280_pressure;Samples;Min_cycle;Max_cycle;Signal;HPM_P1;HPM_P2
2022/06/05 00:02:21;;;;;;;;;20.00;20.00;;;;;18.63;100.00;99767.03;6280900;20;2835684;-56
2022/06/05 00:05:35;;;;;;;;;20.50;19.00;;;;;18.73;100.00;99767.03;6308190;20;2829497;-55
2022/06/05 00:08:09;;;;;;;;;15.00;15.00;;;;;18.64;100.00;99773.31;6277937;20;2814842;-53
2022/06/05 00:10:55;;;;;;;;;20.00;18.00;;;;;18.50;100.00;99780.06;6281341;20;3560799;-57
2022/06/05 00:13:29;;;;;;;;;22.67;20.67;;;;;18.66;100.00;99771.31;6279392;20;2840533;-57
2022/06/05 00:15:59;;;;;;;;;22.67;19.33;;;;;18.36;100.00;99764.19;6310218;20;3571188;-53
2022/06/05 00:18:34;;;;;;;;;19.50;18.00;;;;;18.17;100.00;99765.88;6277451;20;2835701;-54
2022/06/05 00:21:05;;;;;;;;;20.33;18.67;;;;;18.28;100.00;99759.47;6275348;20;3574248;-57
2022/06/05 00:23:35;;;;;;;;;19.67;19.00;;;;;18.55;100.00;99756.03;6281102;20;3562921;-53
2022/06/05 00:26:22;;;;;;;;;18.33;18.00;;;;;18.51;100.00;99757.31;6312399;20;3553377;-55
2022/06/05 00:30:10;;;;;;;;;20.67;19.00;;;;;18.48;100.00;99756.72;6313587;20;3566309;-58
2022/06/05 00:33:00;;;;;;;;;17.67;17.67;;;;;18.17;100.00;99751.44;6277331;20;3564888;-54
2022/06/05 00:35:33;;;;;;;;;16.67;16.67;;;;;18.18;100.00;99745.84;6311381;20;3568025;-53
2022/06/05 00:38:49;;;;;;;;;19.00;19.00;;;;;18.29;100.00;99746.72;6312623;20;3558579;-56
2022/06/05 00:41:55;;;;;;;;;19.67;19.00;;;;;18.48;100.00;99724.94;6272016;20;2844035;-54
2022/06/05 00:44:52;;;;;;;;;24.33;23.00;;;;;18.54;100.00;99723.53;6311252;20;3581507;-55
2022/06/05 00:47:30;;;;;;;;;22.67;21.67;;;;;18.56;100.00;99716.97;6284274;20;3582715;-57
2022/06/05 00:50:18;;;;;;;;;24.67;22.33;;;;;18.57;100.00;99725.97;6286698;20;3577347;-57
2022/06/05 00:52:55;;;;;;;;;22.67;20.33;;;;;18.29;100.00;99730.41;6286164;20;3575477;-54
2022/06/05 00:55:30;;;;;;;;;22.33;19.33;;;;;18.50;100.00;99741.13;6283692;20;2848292;-55
2022/06/05 00:57:59;;;;;;;;;22.67;18.33;;;;;18.64;100.00;99730.69;6315274;20;3579622;-55
2022/06/05 01:00:44;;;;;;;;;20.00;19.50;;;;;18.42;100.00;99726.41;6280058;20;2846116;-56
2022/06/05 01:03:14;;;;;;;;;22.33;20.67;;;;;18.32;100.00;99724.69;6284660;20;3568410;-58
2022/06/05 01:05:43;;;;;;;;;20.00;18.00;;;;;18.34;100.00;99722.69;6281696;20;2827426;-56
2022/06/05 01:08:15;;;;;;;;;19.67;19.67;;;;;18.48;100.00;99718.66;6287667;20;3565855;-55
2022/06/05 01:11:37;;;;;;;;;23.67;22.67;;;;;18.32;100.00;99719.25;6316816;20;3581599;-56
2022/06/05 01:14:28;;;;;;;;;29.00;26.00;;;;;18.38;100.00;99718.69;6285393;20;3597117;-56
2022/06/05 01:17:17;;;;;;;;;31.00;29.00;;;;;18.56;100.00;99733.28;6284068;20;3595028;-62
2022/06/05 01:20:19;;;;;;;;;32.00;29.00;;;;;18.72;100.00;99720.91;6282271;20;3597148;-62
2022/06/05 01:23:33;;;;;;;;;32.67;31.33;;;;;18.57;100.00;99726.81;6315557;20;3572215;-61
2022/06/05 01:26:36;;;;;;;;;34.67;31.00;;;;;18.36;100.00;99726.97;6285784;20;3593985;-61
2022/06/05 01:29:25;;;;;;;;;31.00;28.33;;;;;18.48;100.00;99718.66;6285631;20;3597178;-61
2022/06/05 01:32:20;;;;;;;;;36.67;33.00;;;;;18.48;100.00;99724.09;6286187;20;3570098;-62
2022/06/05 01:35:03;;;;;;;;;44.33;35.67;;;;;18.45;100.00;99717.09;6283319;20;3588839;-61
2022/06/05 01:37:41;;;;;;;;;36.33;30.67;;;;;18.37;100.00;99709.66;6284799;20;3575268;-62
2022/06/05 01:40:28;;;;;;;;;45.00;36.33;;;;;18.51;100.00;99718.38;6285035;20;3600278;-62
2022/06/05 01:43:22;;;;;;;;;40.67;33.33;;;;;18.53;100.00;99714.50;6282931;20;3578379;-62
2022/06/05 01:46:09;;;;;;;;;38.33;33.00;;;;;18.62;100.00;99720.97;6282518;20;3597146;-62
2022/06/05 01:48:52;;;;;;;;;42.33;33.67;;;;;18.70;100.00;99717.50;6284062;20;3604423;-62
2022/06/05 01:51:35;;;;;;;;;45.00;36.00;;;;;18.56;100.00;99714.25;6284804;20;3613807;-61
2022/06/05 01:54:13;;;;;;;;;48.00;37.67;;;;;18.29;100.00;99709.53;6284911;20;3615936;-61
2022/06/05 01:56:54;;;;;;;;;42.00;32.67;;;;;18.33;100.00;99715.53;6279033;20;3603429;-61
2022/06/05 01:59:46;;;;;;;;;40.67;36.00;;;;;18.32;100.00;99721.97;6313881;20;3593977;-61
2022/06/05 02:02:25;;;;;;;;;44.33;37.00;;;;;18.39;100.00;99728.56;6285286;20;3600264;-62
2022/06/05 02:05:15;;;;;;;;;50.67;39.33;;;;;18.90;100.00;99726.50;6282997;20;3608577;-62
2022/06/05 02:07:55;;;;;;;;;41.33;34.00;;;;;18.93;100.00;99727.09;6282935;20;3586715;-61
2022/06/05 02:10:56;;;;;;;;;33.67;31.00;;;;;18.64;100.00;99722.53;6282005;20;3587838;-61
2022/06/05 02:13:25;;;;;;;;;28.00;23.00;;;;;18.62;100.00;99726.41;6284058;20;3577310;-61
2022/06/05 02:15:54;;;;;;;;;34.00;29.33;;;;;18.48;100.00;99727.69;6287602;20;3609584;-61
2022/06/05 02:18:23;;;;;;;;;34.33;30.33;;;;;18.41;100.00;99732.84;6284756;20;3605442;-62
2022/06/05 02:20:52;;;;;;;;;37.33;32.00;;;;;18.30;100.00;99732.13;6282031;20;3588879;-61
2022/06/05 02:23:25;;;;;;;;;38.33;33.33;;;;;18.71;100.00;99730.09;6286068;20;3575329;-61
2022/06/05 02:25:55;;;;;;;;;37.33;34.33;;;;;18.64;100.00;99725.25;6280464;20;3591925;-62
2022/06/05 02:28:24;;;;;;;;;38.67;32.00;;;;;18.50;100.00;99722.97;6288051;20;3587743;-61
2022/06/05 02:31:16;;;;;;;;;44.00;37.00;;;;;18.49;100.00;99720.41;6285849;20;3593976;-61
2022/06/05 02:34:22;;;;;;;;;43.33;34.33;;;;;18.42;100.00;99714.66;6284538;20;3599170;-61
2022/06/05 02:37:29;;;;;;;;;43.67;36.33;;;;;18.38;100.00;99726.84;6315152;20;3599220;-61
2022/06/05 02:40:25;;;;;;;;;39.33;36.00;;;;;18.34;100.00;99722.69;6285385;20;3590198;-61
2022/06/05 02:43:05;;;;;;;;;43.33;38.00;;;;;18.30;100.00;99718.53;6280347;20;3592941;-61
2022/06/05 02:46:21;;;;;;;;;46.00;37.67;;;;;18.61;100.00;99714.63;6284998;20;3594086;-61
2022/06/05 02:49:22;;;;;;;;;48.67;40.00;;;;;18.46;100.00;99724.28;6286299;20;3604452;-61
2022/06/05 02:51:56;;;;;;;;;51.50;39.50;;;;;18.42;100.00;99725.53;6280719;20;3628504;-61
2022/06/05 02:54:27;;;;;;;;;46.67;38.33;;;;;18.31;100.00;99733.84;6314339;20;3595189;-61
2022/06/05 02:56:56;;;;;;;;;48.00;39.67;;;;;18.47;100.00;99733.28;6283765;20;3602307;-61
2022/06/05 02:59:25;;;;;;;;;48.33;39.00;;;;;18.28;100.00;99739.59;6285982;20;3583555;-61
2022/06/05 03:04:42;;;;;;;;;42.00;35.00;;;;;18.35;100.00;99746.13;6313398;20;3577446;-60
2022/06/05 03:07:11;;;;;;;;;48.33;39.67;;;;;18.77;100.00;99743.13;6280836;20;3600284;-61
2022/06/05 03:09:40;;;;;;;;;52.33;39.00;;;;;18.80;100.00;99748.28;6284719;20;3627345;-61
2022/06/05 03:12:10;;;;;;;;;48.75;39.50;;;;;18.83;100.00;99743.44;6285398;20;3617013;-61
2022/06/05 03:14:39;;;;;;;;;48.00;39.00;;;;;19.05;100.00;99747.66;6312121;20;3599227;-61
2022/06/05 03:17:09;;;;;;;;;50.33;40.67;;;;;19.11;100.00;99748.94;6282167;20;3627387;-61
2022/06/05 03:19:38;;;;;;;;;47.00;39.00;;;;;18.81;100.00;99744.56;6279822;20;2855573;-62
2022/06/05 03:22:07;;;;;;;;;45.67;38.33;;;;;18.94;100.00;99747.00;6314033;20;3600216;-61
2022/06/05 03:24:36;;;;;;;;;47.00;40.00;;;;;18.97;100.00;99742.09;6284098;20;3607541;-61
2022/06/05 03:27:06;;;;;;;;;47.75;38.50;;;;;19.10;100.00;99740.94;6284978;20;3624259;-61
2022/06/05 03:29:35;;;;;;;;;48.25;39.00;;;;;18.98;100.00;99751.97;6314916;20;3614892;-61
2022/06/05 03:32:04;;;;;;;;;47.67;37.00;;;;;18.94;100.00;99752.44;6313956;20;3596096;-61
2022/06/05 03:34:34;;;;;;;;;49.00;41.00;;;;;18.70;100.00;99755.59;6285100;20;3602320;-61
2022/06/05 03:37:04;;;;;;;;;49.00;40.50;;;;;18.97;100.00;99763.03;6283380;20;3619005;-60
2022/06/05 03:39:35;;;;;;;;;51.75;42.75;;;;;19.05;100.00;99771.31;6314960;20;3631590;-61
2022/06/05 03:42:06;;;;;;;;;51.00;41.75;;;;;19.03;100.00;99776.88;6313352;20;4379434;-60
2022/06/05 03:44:42;;;;;;;;;51.00;41.25;;;;;18.96;100.00;99783.09;6309346;20;3623132;-61
2022/06/05 03:47:12;;;;;;;;;50.00;41.25;;;;;18.83;100.00;99786.97;6314991;20;3616357;-61
2022/06/05 03:49:41;;;;;;;;;50.67;41.67;;;;;19.13;100.00;99786.91;6313029;20;3617321;-61
2022/06/05 03:52:11;;;;;;;;;47.67;37.67;;;;;19.35;100.00;99791.13;6281968;20;3614082;-61
2022/06/05 03:54:40;;;;;;;;;49.33;40.33;;;;;19.25;100.00;99783.00;6281933;20;3600238;-61
2022/06/05 03:57:09;;;;;;;;;45.67;38.67;;;;;19.08;100.00;99790.91;6284800;20;3589840;-61
2022/06/05 03:59:38;;;;;;;;;49.67;41.33;;;;;19.16;100.00;99794.78;6281383;20;3617729;-61
2022/06/05 04:02:07;;;;;;;;;47.67;39.33;;;;;19.25;100.00;99792.03;6314539;20;3591925;-61
2022/06/05 04:04:36;;;;;;;;;50.75;39.25;;;;;19.26;100.00;99796.47;6283529;20;3629483;-60
2022/06/05 04:07:05;;;;;;;;;50.00;39.67;;;;;19.59;100.00;99802.38;6312369;20;3621180;-61
2022/06/05 04:09:34;;;;;;;;;50.33;40.67;;;;;19.46;100.00;99802.72;6282949;20;3612746;-61
2022/06/05 04:12:04;;;;;;;;;47.25;38.50;;;;;19.43;100.00;99805.75;6283908;20;3603380;-61
2022/06/05 04:14:33;;;;;;;;;44.00;37.33;;;;;19.57;100.00;99814.44;6314642;20;3586710;-61
2022/06/05 04:17:01;;;;;;;;;42.33;36.00;;;;;19.85;100.00;99818.94;6283612;20;3586705;-61
2022/06/05 04:19:30;;;;;;;;;43.33;36.00;;;;;19.88;100.00;99813.19;6282476;20;3602466;-61
2022/06/05 04:22:00;;;;;;;;;40.00;35.67;;;;;19.95;100.00;99811.53;6287229;20;3589814;-62
2022/06/05 04:24:28;;;;;;;;;42.00;35.00;;;;;19.90;100.00;99821.19;6288617;20;3581473;-61
2022/06/05 04:26:58;;;;;;;;;30.50;26.00;;;;;19.74;100.00;99816.38;6284644;20;2833698;-62
2022/06/05 04:29:27;;;;;;;;;48.00;38.33;;;;;19.75;100.00;99829.03;6287664;20;3595041;-61
2022/06/05 04:31:55;;;;;;;;;47.33;39.00;;;;;19.93;100.00;99824.50;6288166;20;3599193;-60
2022/06/05 04:34:24;;;;;;;;;46.00;37.67;;;;;19.73;100.00;99831.03;6285476;20;3581552;-60
2022/06/05 04:36:54;;;;;;;;;50.33;41.00;;;;;19.84;100.00;99824.53;6285028;20;3615856;-61
2022/06/05 04:39:22;;;;;;;;;45.33;36.67;;;;;19.79;100.00;99833.13;6318950;20;3585675;-61
2022/06/05 04:41:51;;;;;;;;;43.00;36.33;;;;;19.84;100.00;99832.69;6285635;20;3598285;-61
2022/06/05 04:44:20;;;;;;;;;44.00;35.33;;;;;19.72;100.00;99832.91;6289571;20;3597144;-61
2022/06/05 04:46:48;;;;;;;;;40.33;35.33;;;;;19.79;100.00;99835.88;6286408;20;3590991;-60
2022/06/05 04:49:18;;;;;;;;;41.33;36.33;;;;;19.69;100.00;99837.78;6286176;20;2851479;-61
2022/06/05 04:51:47;;;;;;;;;45.67;38.67;;;;;19.61;100.00;99837.63;6318486;20;3596076;-61
2022/06/05 04:54:17;;;;;;;;;46.67;37.33;;;;;19.92;100.00;99839.09;6287103;20;3601257;-61
2022/06/05 04:56:46;;;;;;;;;41.67;35.33;;;;;20.15;100.00;99836.00;6288510;20;3596195;-60
2022/06/05 04:59:15;;;;;;;;;42.67;35.67;;;;;20.20;100.00;99843.72;6287727;20;3583588;-60
2022/06/05 05:01:43;;;;;;;;;45.67;36.67;;;;;20.05;100.00;99844.22;6288304;20;3599274;-60
2022/06/05 05:04:15;;;;;;;;;37.00;32.00;;;;;20.04;100.00;99855.28;6285932;20;3605590;-61
2022/06/05 05:06:45;;;;;;;;;40.00;34.33;;;;;20.08;100.00;99859.41;6289294;20;3605550;-61
2022/06/05 05:09:14;;;;;;;;;39.67;33.00;;;;;20.34;100.00;99857.66;6283657;20;3585632;-60
2022/06/05 05:11:43;;;;;;;;;40.33;33.67;;;;;20.51;100.00;99879.66;6286477;20;3571093;-61
2022/06/05 05:14:13;;;;;;;;;40.33;31.67;;;;;20.45;100.00;99864.78;6283150;20;3595264;-60
2022/06/05 05:16:42;;;;;;;;;43.00;35.67;;;;;20.75;100.00;99876.41;6319955;20;3579415;-60
2022/06/05 05:19:11;;;;;;;;;34.67;30.00;;;;;20.60;100.00;99878.78;6283717;20;2861983;-61
2022/06/05 05:21:40;;;;;;;;;37.33;33.00;;;;;20.66;100.00;99880.88;6315535;20;3576328;-60
2022/06/05 05:24:10;;;;;;;;;36.50;32.00;;;;;20.97;100.00;99877.78;6289517;20;3605431;-60
2022/06/05 05:26:38;;;;;;;;;36.33;33.00;;;;;20.77;100.00;99879.81;6318237;20;3596134;-61
2022/06/05 05:29:07;;;;;;;;;39.00;33.00;;;;;20.88;100.00;99884.16;6287693;20;3570090;-60
2022/06/05 05:31:41;;;;;;;;;35.33;32.33;;;;;21.12;99.65;99894.47;6281369;20;3585662;-61
2022/06/05 05:34:11;;;;;;;;;32.67;30.67;;;;;21.50;99.60;99893.28;6316085;20;3586783;-60
2022/06/05 05:36:41;;;;;;;;;32.00;29.00;;;;;21.98;95.85;99889.13;6287894;20;3570169;-60
2022/06/05 05:42:07;;;;;;;;;31.00;29.67;;;;;22.15;92.48;99895.53;6284222;20;3587775;-60
2022/06/05 05:44:41;;;;;;;;;30.33;29.67;;;;;22.12;92.32;99899.47;6284609;20;3591005;-61
2022/06/05 05:47:26;;;;;;;;;20.67;20.67;;;;;21.89;92.75;99903.78;6285947;20;3570043;-60
2022/06/05 05:50:11;;;;;;;;;25.00;23.00;;;;;21.42;93.23;99909.59;6282167;20;3580523;-60
2022/06/05 05:52:41;;;;;;;;;27.75;27.00;;;;;21.33;92.82;99905.03;6286476;20;3598175;-61
2022/06/05 05:55:28;;;;;;;;;25.33;24.33;;;;;21.22;92.85;99907.03;6313298;20;1902379;-61
2022/06/05 05:57:57;;;;;;;;;27.00;25.67;;;;;21.15;93.31;99911.41;6311623;20;3587703;-60
2022/06/05 06:00:27;;;;;;;;;26.00;26.00;;;;;21.06;92.81;99912.31;6313521;20;3600281;-60
2022/06/05 06:02:57;;;;;;;;;24.67;23.33;;;;;21.10;93.61;99910.16;6318657;20;3593973;-60
2022/06/05 06:05:31;;;;;;;;;17.00;17.00;;;;;20.98;92.63;99910.38;6285252;20;3566954;-61
2022/06/05 06:08:00;;;;;;;;;26.67;23.00;;;;;20.96;93.39;99911.56;6280151;20;3589886;-60
2022/06/05 06:10:29;;;;;;;;;27.00;26.00;;;;;21.21;93.68;99910.75;6284876;20;3610646;-60
2022/06/05 06:12:59;;;;;;;;;28.33;27.00;;;;;21.22;93.14;99906.16;6314531;20;3592950;-60
2022/06/05 06:15:28;;;;;;;;;16.33;16.33;;;;;21.39;91.54;99908.03;6314729;20;3557524;-60
2022/06/05 06:17:56;;;;;;;;;19.00;19.00;;;;;21.50;91.48;99906.94;6284917;20;3582569;-60
2022/06/05 06:20:25;;;;;;;;;22.00;22.00;;;;;22.00;89.60;99908.09;6282507;20;3570013;-60
2022/06/05 06:22:55;;;;;;;;;25.00;23.00;;;;;22.29;87.32;99907.75;6287599;20;3582575;-60
2022/06/05 06:25:23;;;;;;;;;25.00;24.00;;;;;22.18;84.27;99897.09;6285784;20;3579446;-60
2022/06/05 06:27:52;;;;;;;;;29.67;25.33;;;;;21.95;86.49;99896.78;6284775;20;3592033;-61
2022/06/05 06:30:21;;;;;;;;;26.67;26.00;;;;;21.76;87.12;99884.22;6283422;20;3585686;-60
2022/06/05 06:32:50;;;;;;;;;29.75;24.75;;;;;21.62;86.51;99882.94;6286488;20;3599194;-61
2022/06/05 06:35:20;;;;;;;;;25.00;24.67;;;;;21.81;84.80;99885.44;6312972;20;3578361;-61
2022/06/05 06:37:49;;;;;;;;;24.00;23.00;;;;;21.79;85.69;99886.63;6315258;20;3589798;-59
2022/06/05 06:40:19;;;;;;;;;30.00;27.33;;;;;22.31;83.63;99892.91;6313187;20;3595001;-60
2022/06/05 06:42:48;;;;;;;;;25.33;25.00;;;;;22.16;82.47;99888.19;6317079;20;3584594;-60
2022/06/05 06:45:17;;;;;;;;;26.67;26.00;;;;;22.41;83.00;99883.69;6284317;20;3594108;-61
2022/06/05 06:47:45;;;;;;;;;24.33;24.33;;;;;23.13;79.96;99886.78;6283940;20;3590858;-60
2022/06/05 06:50:16;;;;;;;;;25.00;25.00;;;;;23.63;78.15;99889.31;6282145;20;3593075;-61
2022/06/05 06:52:45;;;;;;;;;21.33;21.33;;;;;23.90;75.86;99889.09;6284771;20;3582521;-63
2022/06/05 06:55:17;;;;;;;;;25.67;25.67;;;;;24.32;74.98;99892.38;6285599;20;3595080;-60
2022/06/05 06:57:47;;;;;;;;;26.25;24.00;;;;;24.32;74.07;99886.88;6284040;20;3599313;-62
2022/06/05 07:00:18;;;;;;;;;25.67;23.67;;;;;23.86;74.46;99881.22;6315604;20;3596112;-55
2022/06/05 07:02:47;;;;;;;;;23.33;21.67;;;;;24.91;71.99;99880.09;6283518;20;3587827;-57
2022/06/05 07:05:16;;;;;;;;;29.00;26.67;;;;;24.07;74.96;99879.81;6283740;20;3599246;-57
2022/06/05 07:07:45;;;;;;;;;29.00;27.00;;;;;23.45;75.74;99884.00;6281374;20;3590889;-57
2022/06/05 07:10:15;;;;;;;;;26.33;25.00;;;;;24.56;73.11;99873.25;6308573;20;3588915;-58
2022/06/05 07:12:44;;;;;;;;;26.00;24.67;;;;;24.29;74.63;99884.50;6283523;20;3591934;-54
2022/06/05 07:15:13;;;;;;;;;27.25;24.75;;;;;24.67;71.68;99878.31;6284063;20;3597230;-54
2022/06/05 07:17:42;;;;;;;;;24.67;24.67;;;;;25.02;70.05;99878.78;6316588;20;3600260;-53
2022/06/05 07:20:13;;;;;;;;;25.25;24.50;;;;;25.11;70.02;99881.28;6284460;20;3596121;-60
2022/06/05 07:22:42;;;;;;;;;26.33;24.33;;;;;25.45;68.84;99882.75;6308133;20;3592045;-60
2022/06/05 07:25:12;;;;;;;;;26.50;24.50;;;;;25.33;68.97;99882.34;6285850;20;3594040;-59
2022/06/05 07:27:43;;;;;;;;;28.14;25.43;;;;;25.62;67.73;99886.19;6334148;20;3593037;-59
2022/06/05 07:30:13;;;;;;;;;23.67;23.67;;;;;25.74;67.92;99881.09;6283321;20;3598196;-57
2022/06/05 07:32:41;;;;;;;;;23.00;23.00;;;;;25.39;69.92;99881.59;6286093;20;3585691;-58
2022/06/05 07:35:12;;;;;;;;;24.75;24.50;;;;;25.70;69.13;99877.88;6285525;20;3593077;-55
2022/06/05 07:37:42;;;;;;;;;23.33;23.33;;;;;25.11;70.12;99878.53;6314693;20;3594176;-55
2022/06/05 07:40:30;;;;;;;;;27.00;24.00;;;;;24.78;71.50;99882.53;6284452;20;3598191;-58
2022/06/05 07:42:59;;;;;;;;;22.33;21.33;;;;;24.43;72.62;99879.28;6284325;20;3582624;-58
2022/06/05 07:45:28;;;;;;;;;27.33;26.67;;;;;24.24;74.75;99889.66;6287953;20;3587767;-59
2022/06/05 07:47:58;;;;;;;;;27.00;25.75;;;;;24.91;71.61;99888.31;6285933;20;3596100;-54
2022/06/05 07:50:28;;;;;;;;;26.00;26.00;;;;;24.79;71.41;99898.84;6314502;20;3602371;-53
2022/06/05 07:55:45;;;;;;;;;22.33;21.00;;;;;25.35;68.92;99901.38;6318947;20;3581635;-55
2022/06/05 07:58:13;;;;;;;;;24.33;21.33;;;;;25.43;68.79;99898.56;6292617;20;3590250;-62
2022/06/05 08:00:42;;;;;;;;;20.33;20.33;;;;;24.92;68.02;99901.00;6286029;20;3569110;-53
2022/06/05 08:03:11;;;;;;;;;20.33;19.00;;;;;25.08;66.94;99900.03;6294207;20;3584728;-56
2022/06/05 08:05:39;;;;;;;;;16.00;15.67;;;;;24.68;65.92;99900.13;6292898;20;3554401;-58
2022/06/05 08:08:08;;;;;;;;;20.00;18.33;;;;;24.98;67.28;99911.25;6289835;20;3577309;-56
2022/06/05 08:10:37;;;;;;;;;19.00;16.33;;;;;25.08;64.76;99916.53;6293383;20;3571101;-59
2022/06/05 08:13:05;;;;;;;;;16.00;16.00;;;;;24.53;67.22;99918.38;6288423;20;2819011;-55
2022/06/05 08:15:34;;;;;;;;;17.33;15.33;;;;;24.79;66.57;99918.06;6290635;20;3558591;-58
2022/06/05 08:18:04;;;;;;;;;14.00;14.00;;;;;24.44;66.82;99919.44;6286300;20;2808637;-59
2022/06/05 08:20:32;;;;;;;;;16.00;16.00;;;;;24.09;67.84;99921.59;6287125;20;2823282;-58
2022/06/05 08:23:02;;;;;;;;;14.67;14.67;;;;;24.17;66.69;99916.13;6289241;20;2483602;-56
2022/06/05 08:25:31;;;;;;;;;17.67;16.67;;;;;24.24;68.13;99924.50;6323395;20;3559604;-61
2022/06/05 08:28:00;;;;;;;;;13.00;13.00;;;;;24.31;67.65;99925.50;6289383;20;2808626;-55
2022/06/05 08:30:28;;;;;;;;;16.50;16.50;;;;;24.13;68.69;99917.50;6288958;20;2828383;-60
2022/06/05 08:32:59;;;;;;;;;16.00;16.00;;;;;23.95;65.22;99920.47;6285730;20;3552397;-55
2022/06/05 08:35:28;;;;;;;;;20.67;19.00;;;;;24.38;66.03;99928.38;6320651;20;3568049;-55
2022/06/05 08:41:42;;;;;;;;;20.67;20.00;;;;;24.31;66.37;99937.31;6318960;20;3564831;-54
2022/06/05 08:44:58;;;;;;;;;15.33;15.00;;;;;24.48;62.58;99935.38;6320484;20;3529526;-55
2022/06/05 08:47:53;;;;;;;;;21.67;18.33;;;;;24.95;63.55;99933.59;6318818;20;3574211;-54
2022/06/05 08:50:35;;;;;;;;;16.67;15.33;;;;;25.53;60.98;99937.66;6288544;20;2487844;-61
2022/06/05 08:53:37;;;;;;;;;19.67;17.33;;;;;26.01;60.08;99935.53;6321236;20;3567975;-62
2022/06/05 08:56:08;;;;;;;;;46.33;37.67;;;;;25.27;60.11;99937.19;6291068;20;3573286;-61
2022/06/05 08:58:56;;;;;;;;;24.33;22.67;;;;;25.02;60.63;99931.00;6286394;20;3580434;-60
2022/06/05 09:02:12;;;;;;;;;33.33;30.00;;;;;24.98;59.81;99930.47;6290140;20;3585694;-61
2022/06/05 09:05:01;;;;;;;;;19.33;16.67;;;;;25.17;59.38;99930.06;6288765;20;3571070;-62
2022/06/05 09:07:47;;;;;;;;;24.67;24.33;;;;;24.37;62.65;99919.28;6286147;20;3583691;-62
2022/06/05 09:10:37;;;;;;;;;16.00;16.00;;;;;24.11;63.05;99919.56;6284417;20;2827404;-61
2022/06/05 09:13:57;;;;;;;;;16.33;15.33;;;;;24.29;62.92;99930.31;6282472;20;3551315;-61
2022/06/05 09:16:44;;;;;;;;;20.33;20.00;;;;;25.35;60.51;99926.13;6318270;20;3574235;-61
2022/06/05 09:19:26;;;;;;;;;14.33;14.33;;;;;25.78;58.61;99919.03;6285602;20;2807581;-61
2022/06/05 09:22:16;;;;;;;;;10.67;10.67;;;;;25.70;59.03;99921.00;6316957;20;3518052;-61
2022/06/05 09:25:03;;;;;;;;;19.50;17.00;;;;;26.21;58.10;99927.53;6317013;20;2835688;-61
2022/06/05 09:28:19;;;;;;;;;12.67;12.67;;;;;26.16;57.26;99921.75;6291733;20;3525308;-61
2022/06/05 09:31:20;;;;;;;;;16.00;16.00;;;;;26.51;57.87;99919.25;6317316;20;3558556;-61
2022/06/05 09:33:54;;;;;;;;;18.00;15.00;;;;;26.23;58.12;99916.34;6319338;20;2822144;-61
2022/06/05 09:36:28;;;;;;;;;15.33;15.33;;;;;26.58;59.50;99909.19;6288760;20;3556535;-61
2022/06/05 09:39:29;;;;;;;;;18.00;17.67;;;;;26.80;56.51;99912.84;6321505;20;3568965;-60
2022/06/05 09:42:55;;;;;;;;;16.00;16.00;;;;;26.31;57.16;99907.13;6285802;20;3562727;-59
2022/06/05 09:45:51;;;;;;;;;12.33;12.33;;;;;26.97;56.52;99915.38;6285558;20;3530624;-59
2022/06/05 09:48:37;;;;;;;;;17.67;17.67;;;;;26.94;56.94;99913.88;6318122;20;3567969;-60
2022/06/05 09:51:15;;;;;;;;;29.75;27.25;;;;;26.96;56.69;99917.25;6316823;20;3596079;-60
2022/06/05 09:54:32;;;;;;;;;15.00;15.00;;;;;26.95;57.48;99911.97;6321135;20;3540900;-61
2022/06/05 10:00:56;;;;;;;;;16.00;16.00;;;;;26.17;59.95;99928.09;6315533;20;3557654;-63
2022/06/05 10:03:39;;;;;;;;;10.00;8.00;;;;;26.57;59.21;99918.53;6286814;20;2769101;-59
2022/06/05 10:06:17;;;;;;;;;14.00;12.67;;;;;26.02;56.56;99915.19;6318815;20;3521043;-62
2022/06/05 10:09:16;;;;;;;;;31.67;29.33;;;;;26.64;56.32;99910.31;6317163;20;3597125;-61
2022/06/05 10:12:52;;;;;;;;;50.00;42.00;;;;;27.15;55.49;99921.31;6283145;20;3594026;-60
2022/06/05 10:16:02;;;;;;;;;18.00;18.00;;;;;27.44;55.75;99923.09;6281784;20;3566892;-59
2022/06/05 10:19:22;;;;;;;;;17.00;17.00;;;;;27.20;55.15;99929.00;6311272;20;2835829;-60
2022/06/05 10:22:07;;;;;;;;;16.00;16.00;;;;;27.11;52.15;99929.09;6281621;20;2829434;-60
2022/06/05 10:25:22;;;;;;;;;16.50;15.00;;;;;27.38;53.88;99921.09;6286056;20;2816005;-55
2022/06/05 10:27:59;;;;;;;;;19.00;19.00;;;;;27.53;54.46;99919.13;6286875;20;2749203;-62
2022/06/05 10:30:39;;;;;;;;;21.67;19.33;;;;;27.58;54.24;99921.28;6285367;20;3574203;-54
2022/06/05 10:33:39;;;;;;;;;23.00;21.33;;;;;27.47;50.75;99924.59;6286136;20;3587789;-56
2022/06/05 10:36:43;;;;;;;;;35.50;30.00;;;;;26.85;54.79;99920.53;6288114;20;3589840;-56
2022/06/05 10:39:28;;;;;;;;;19.33;19.33;;;;;26.86;54.02;99923.09;6315877;20;3566985;-57
2022/06/05 10:53:00;;;;;;;;;21.00;18.20;;;;;26.66;55.98;99922.00;6267520;20;2821107;-58
2022/06/05 10:55:59;;;;;;;;;15.00;15.00;;;;;28.37;54.71;99925.69;6346455;20;3521089;-61
2022/06/05 10:58:51;;;;;;;;;13.00;13.00;;;;;27.52;53.43;99911.06;6349442;20;2805495;-61
2022/06/05 11:01:55;;;;;;;;;22.00;19.00;;;;;27.98;52.84;99916.09;6342752;20;3576429;-56
2022/06/05 11:05:02;;;;;;;;;19.67;19.67;;;;;27.89;53.85;99918.19;6314549;20;3565858;-56
2022/06/05 11:08:14;;;;;;;;;19.67;19.67;;;;;27.28;53.93;99915.94;6315228;20;3572197;-60
2022/06/05 11:14:26;;;;;;;;;15.00;13.00;;;;;26.33;54.18;99907.78;6311031;20;3511811;-59
2022/06/05 11:17:42;;;;;;;;;9.67;9.00;;;;;26.18;52.22;99902.28;6349131;20;2760697;-60
2022/06/05 11:20:22;;;;;;;;;10.33;9.33;;;;;26.54;51.11;99896.00;6342621;20;2770138;-58
2022/06/05 11:23:25;;;;;;;;;10.00;10.00;;;;;26.47;50.42;99882.97;6341509;20;2796150;-59
2022/06/05 11:26:16;;;;;;;;;15.00;12.33;;;;;26.53;52.64;99875.03;6341390;20;2483573;-60
2022/06/05 11:29:32;;;;;;;;;14.00;13.33;;;;;27.02;52.13;99874.31;6345518;20;3525241;-61
2022/06/05 11:32:28;;;;;;;;;15.33;15.33;;;;;27.31;53.41;99867.81;6336530;20;3552318;-58
2022/06/05 11:35:24;;;;;;;;;11.33;11.33;;;;;27.43;51.08;99876.41;6338628;20;3530442;-55
2022/06/05 11:38:42;;;;;;;;;11.00;11.00;;;;;27.16;51.11;99867.84;6315482;20;2483587;-62
2022/06/05 11:41:35;;;;;;;;;13.00;13.00;;;;;27.28;50.80;99859.97;6342333;20;2483605;-58
2022/06/05 11:44:43;;;;;;;;;9.00;6.33;;;;;27.42;51.02;99849.88;6344024;20;2748198;-61
2022/06/05 11:47:58;;;;;;;;;9.67;8.33;;;;;27.15;47.95;99855.13;6349663;20;2758664;-57
2022/06/05 11:50:52;;;;;;;;;8.00;8.00;;;;;27.14;48.25;99859.78;6340029;20;2751298;-60
2022/06/05 11:54:05;;;;;;;;;14.67;13.00;;;;;27.48;49.26;99852.69;6319529;20;3522144;-61
2022/06/05 11:57:21;;;;;;;;;12.00;12.00;;;;;27.10;48.36;99852.13;6321049;20;2789858;-52
2022/06/05 12:00:21;;;;;;;;;16.00;13.00;;;;;27.25;46.90;99850.19;6314465;20;2806724;-56
2022/06/05 12:03:18;;;;;;;;;15.00;15.00;;;;;27.45;49.68;99832.94;6286672;20;3544159;-62
2022/06/05 12:06:21;;;;;;;;;13.67;11.00;;;;;27.04;48.25;99841.88;6321977;20;3519059;-62
2022/06/05 12:09:04;;;;;;;;;13.00;11.00;;;;;27.27;48.20;99828.75;6323859;20;2672267;-62
2022/06/05 12:12:03;;;;;;;;;36.00;31.17;;;;;27.40;48.92;99829.91;6341669;20;3585654;-54
2022/06/05 12:14:53;;;;;;;;;13.33;13.33;;;;;27.44;48.62;99836.75;6288562;20;3527311;-53
2022/06/05 12:18:02;;;;;;;;;8.67;8.00;;;;;27.61;48.88;99829.00;6322378;20;2742964;-55
2022/06/05 12:21:24;;;;;;;;;14.00;14.00;;;;;27.55;48.95;99825.16;6318018;20;2805597;-58
2022/06/05 12:24:22;;;;;;;;;9.67;7.33;;;;;27.52;48.82;99822.81;6291607;20;2772116;-56
2022/06/05 12:27:16;;;;;;;;;15.00;15.00;;;;;28.12;48.17;99837.84;6318341;20;3544452;-59
2022/06/05 12:30:15;;;;;;;;;15.33;12.67;;;;;28.06;46.86;99835.03;6283503;20;2483654;-58
2022/06/05 12:33:34;;;;;;;;;15.33;13.67;;;;;27.91;46.66;99819.47;6320265;20;3544025;-57